Time;durP1;ratioP1;P1;durP2;ratioP2;P2;SDS_P1;SDS_P2;PMS_P1;PMS_P2;Temp;Humidity;BMP_temperature;BMP_pressure;BME280_temperature;BME280_humidity;BME280_pressure;Samples;Min_cycle;Max_cycle;Signal;HPM_P1;HPM_P2
2021/12/16 00:04:35;;;;;;;19.20;7.78;;;;;;;10.39;100.00;103354.47;5062480;28;20040;-72
2021/12/16 00:09:39;;;;;;;21.70;8.35;;;;;;;10.39;100.00;103352.56;5061470;28;20129;-73
2021/12/16 00:29:05;;;;;;;21.08;7.45;;;;;;;10.65;100.00;103356.22;5059941;28;20097;-73
2021/12/16 00:31:32;;;;;;;22.75;7.50;;;;;;;10.71;100.00;103363.56;5063513;28;20031;-72
2021/12/16 00:34:02;;;;;;;23.08;7.25;;;;;;;10.78;100.00;103364.34;5065002;28;20032;-73
2021/12/16 00:36:36;;;;;;;23.55;7.35;;;;;;;10.51;100.00;103363.72;5062018;28;20024;-74
2021/12/16 00:39:15;;;;;;;22.42;8.02;;;;;;;10.70;100.00;103363.78;5066423;28;20295;-73
2021/12/16 00:41:43;;;;;;;19.50;7.07;;;;;;;10.44;100.00;103360.13;5062906;28;20434;-74
2021/12/16 00:47:27;;;;;;;21.40;6.97;;;;;;;10.35;100.00;103350.50;5041545;28;20044;-71
2021/12/16 00:50:04;;;;;;;19.30;7.25;;;;;;;10.48;100.00;103355.91;5061187;28;20435;-74
2021/12/16 00:55:26;;;;;;;15.90;7.35;;;;;;;10.38;100.00;103364.63;5060507;28;20043;-72
2021/12/16 00:57:53;;;;;;;22.90;7.57;;;;;;;10.08;100.00;103367.91;5041601;28;20082;-74
2021/12/16 01:00:19;;;;;;;22.00;7.65;;;;;;;10.30;100.00;103373.91;5061299;28;20033;-73
2021/12/16 01:03:05;;;;;;;20.42;7.60;;;;;;;10.19;100.00;103376.50;5061946;28;20035;-74
2021/12/16 01:46:39;;;;;;;21.00;8.25;;;;;;;9.95;100.00;103406.28;5060878;28;20044;-73
2021/12/16 01:49:35;;;;;;;17.42;7.65;;;;;;;9.86;100.00;103411.16;5059927;28;20069;-73
2021/12/16 01:57:29;;;;;;;17.00;8.27;;;;;;;9.92;100.00;103414.97;5059322;28;20062;-72
2021/12/16 02:00:04;;;;;;;18.83;8.13;;;;;;;9.83;100.00;103424.44;5062138;28;20021;-73
2021/12/16 02:02:50;;;;;;;20.92;8.60;;;;;;;9.77;100.00;103428.03;5059990;28;20024;-73
2021/12/16 02:05:54;;;;;;;18.90;8.32;;;;;;;9.93;100.00;103428.41;5059817;28;20493;-73
2021/12/16 02:08:20;;;;;;;21.75;8.82;;;;;;;9.84;100.00;103423.38;5061466;28;20036;-73
2021/12/16 02:10:56;;;;;;;21.02;9.25;;;;;;;9.74;100.00;103429.31;5044752;28;20367;-73
2021/12/16 02:35:34;;;;;;;17.17;10.10;;;;;;;9.85;100.00;103447.81;5057968;28;20394;-72
2021/12/16 02:38:03;;;;;;;20.30;9.98;;;;;;;9.83;100.00;103447.22;5060722;28;20083;-74
2021/12/16 02:40:30;;;;;;;21.55;10.57;;;;;;;9.71;100.00;103446.19;5059917;28;20113;-73
2021/12/16 02:50:53;;;;;;;24.98;11.95;;;;;;;9.87;100.00;103445.75;5044453;28;20456;-74
2021/12/16 02:53:20;;;;;;;21.85;10.73;;;;;;;9.81;100.00;103443.84;5044800;28;20120;-73
2021/12/16 02:55:46;;;;;;;20.33;11.10;;;;;;;9.75;100.00;103444.69;5027463;28;20033;-72
2021/12/16 02:58:13;;;;;;;21.60;11.50;;;;;;;9.71;100.00;103444.28;5027955;28;20398;-73
2021/12/16 03:00:44;;;;;;;23.08;11.32;;;;;;;9.78;100.00;103448.91;5047201;28;20519;-74
2021/12/16 03:03:13;;;;;;;21.02;11.27;;;;;;;9.76;100.00;103449.13;5064205;28;20028;-73
2021/12/16 03:05:39;;;;;;;25.48;11.27;;;;;;;9.83;100.00;103455.44;5059693;28;20432;-73
2021/12/16 03:08:05;;;;;;;25.05;12.50;;;;;;;9.63;100.00;103454.63;5065799;28;20036;-74
2021/12/16 03:11:02;;;;;;;27.48;11.60;;;;;;;9.64;100.00;103437.97;5062889;28;20125;-73
2021/12/16 03:21:11;;;;;;;20.40;11.77;;;;;;;9.69;100.00;103449.13;5064361;28;20020;-74
2021/12/16 03:37:15;;;;;;;27.08;13.85;;;;;;;9.51;100.00;103458.00;5043584;28;20029;-73
2021/12/16 03:39:42;;;;;;;21.48;12.77;;;;;;;9.55;100.00;103456.50;5042347;28;20600;-73
2021/12/16 03:42:08;;;;;;;25.70;12.60;;;;;;;9.65;100.00;103457.97;5046066;28;20047;-73
2021/12/16 03:44:49;;;;;;;24.92;12.82;;;;;;;9.63;100.00;103458.19;5042346;28;20472;-73
2021/12/16 03:47:17;;;;;;;24.83;12.32;;;;;;;9.61;100.00;103448.50;5046139;28;20033;-73
2021/12/16 03:49:42;;;;;;;21.25;13.27;;;;;;;9.63;100.00;103443.66;5039763;28;20047;-73
2021/12/16 03:52:09;;;;;;;23.83;13.70;;;;;;;9.56;100.00;103441.75;5046983;28;20025;-74
2021/12/16 03:54:41;;;;;;;26.55;13.73;;;;;;;9.46;100.00;103441.34;5042856;28;20048;-73
2021/12/16 03:57:09;;;;;;;23.05;13.73;;;;;;;9.47;100.00;103448.50;5046089;28;20498;-73
2021/12/16 03:59:37;;;;;;;22.15;13.60;;;;;;;9.48;100.00;103449.38;5040987;28;20029;-73
2021/12/16 04:02:07;;;;;;;23.55;12.85;;;;;;;9.51;100.00;103446.19;5045992;28;20025;-73
2021/12/16 04:04:33;;;;;;;24.80;13.27;;;;;;;9.45;100.00;103447.03;5041764;28;20040;-73
2021/12/16 04:06:59;;;;;;;28.73;13.02;;;;;;;9.44;100.00;103453.56;5065436;28;20532;-74
2021/12/16 04:09:44;;;;;;;30.65;14.95;;;;;;;9.45;100.00;103461.56;5040994;28;20037;-73
2021/12/16 04:12:12;;;;;;;21.95;13.43;;;;;;;9.61;100.00;103467.66;5045129;28;20044;-73
2021/12/16 04:14:40;;;;;;;26.75;13.82;;;;;;;9.61;100.00;103467.66;5043056;28;20545;-73
2021/12/16 04:17:08;;;;;;;21.48;13.80;;;;;;;9.61;100.00;103464.94;5045551;28;20044;-73
2021/12/16 04:19:34;;;;;;;25.33;12.13;;;;;;;9.42;100.00;103459.25;5039170;28;20033;-73
2021/12/16 04:22:09;;;;;;;26.45;13.68;;;;;;;9.52;100.00;103470.63;5045745;28;20079;-73
2021/12/16 04:24:35;;;;;;;18.23;11.90;;;;;;;9.62;100.00;103474.84;5040763;28;20522;-73
2021/12/16 04:27:02;;;;;;;24.23;13.00;;;;;;;9.60;100.00;103477.78;5044663;28;20033;-72
2021/12/16 04:29:28;;;;;;;23.85;12.40;;;;;;;9.65;100.00;103471.69;5042394;28;20067;-73
2021/12/16 04:31:56;;;;;;;22.92;13.13;;;;;;;9.56;100.00;103465.59;5046012;28;20487;-73
2021/12/16 04:34:22;;;;;;;16.20;11.98;;;;;;;9.53;100.00;103463.25;5021883;28;20470;-73
2021/12/16 04:36:47;;;;;;;22.08;12.98;;;;;;;9.61;100.00;103471.28;5043562;28;20182;-73
2021/12/16 04:39:17;;;;;;;21.42;12.35;;;;;;;9.62;100.00;103461.97;5043235;28;20526;-73
2021/12/16 04:41:43;;;;;;;20.80;12.13;;;;;;;9.66;100.00;103467.91;5042025;28;20032;-73
2021/12/16 04:44:14;;;;;;;22.70;13.63;;;;;;;9.46;100.00;103465.13;5041716;28;20039;-73
2021/12/16 04:46:41;;;;;;;19.67;12.63;;;;;;;9.63;100.00;103469.16;5042228;28;20037;-73
2021/12/16 04:49:11;;;;;;;23.38;13.07;;;;;;;9.38;100.00;103467.03;5039615;28;20032;-73
2021/12/16 04:51:40;;;;;;;24.90;12.18;;;;;;;9.65;100.00;103471.69;5041037;28;20029;-74
2021/12/16 04:54:07;;;;;;;18.45;10.88;;;;;;;9.58;100.00;103471.69;5043458;28;20082;-73
2021/12/16 04:56:34;;;;;;;22.35;12.18;;;;;;;9.75;100.00;103474.81;5041223;28;20040;-72
2021/12/16 04:59:02;;;;;;;23.10;12.50;;;;;;;9.73;100.00;103474.19;5042260;28;20510;-73
2021/12/16 05:01:28;;;;;;;17.55;12.07;;;;;;;9.69;100.00;103471.06;5041298;28;20040;-73
2021/12/16 05:03:56;;;;;;;22.83;12.20;;;;;;;9.65;100.00;103474.41;5039265;28;20502;-74
2021/12/16 05:06:21;;;;;;;23.08;13.02;;;;;;;9.69;100.00;103468.31;5041059;28;20044;-74
2021/12/16 05:08:47;;;;;;;19.17;12.10;;;;;;;9.75;100.00;103488.53;5054150;28;20205;-74
2021/12/16 05:11:15;;;;;;;21.58;12.60;;;;;;;9.72;100.00;103489.81;5062967;28;20489;-74
2021/12/16 05:13:43;;;;;;;24.20;12.75;;;;;;;9.73;100.00;103487.91;5061461;28;20032;-73
2021/12/16 05:16:09;;;;;;;21.35;13.18;;;;;;;9.65;100.00;103488.13;5061082;28;20046;-73
2021/12/16 05:18:37;;;;;;;22.55;12.07;;;;;;;9.71;100.00;103487.28;5058554;28;20102;-73
2021/12/16 05:21:12;;;;;;;20.27;12.18;;;;;;;9.74;100.00;103487.69;5059707;28;20037;-73
2021/12/16 05:26:24;;;;;;;21.33;12.80;;;;;;;9.71;100.00;103496.34;5062608;28;20043;-73
2021/12/16 05:28:54;;;;;;;19.27;12.20;;;;;;;9.62;100.00;103505.81;5021958;28;20037;-74
2021/12/16 05:31:22;;;;;;;19.38;11.73;;;;;;;9.66;100.00;103504.34;5043403;28;20686;-74
2021/12/16 05:33:49;;;;;;;20.70;12.43;;;;;;;9.56;100.00;103506.66;5038910;28;20549;-73
2021/12/16 05:36:15;;;;;;;17.98;12.57;;;;;;;9.56;100.00;103502.03;5039351;28;20032;-72
2021/12/16 05:38:40;;;;;;;22.80;12.02;;;;;;;9.60;100.00;103509.81;5043630;28;20158;-74
2021/12/16 05:41:09;;;;;;;21.83;12.77;;;;;;;9.59;100.00;103494.44;5061017;28;20089;-73
2021/12/16 05:43:36;;;;;;;20.40;12.82;;;;;;;9.64;100.00;103500.13;5057977;28;20074;-73
2021/12/16 05:46:03;;;;;;;23.63;12.75;;;;;;;9.53;100.00;103507.91;5061490;28;20062;-73
2021/12/16 05:48:33;;;;;;;26.05;13.25;;;;;;;9.41;100.00;103517.78;5057931;28;20143;-74
2021/12/16 05:51:03;;;;;;;21.92;13.68;;;;;;;9.48;100.00;103512.34;5040584;28;20482;-73
2021/12/16 05:53:30;;;;;;;22.23;14.10;;;;;;;9.54;100.00;103519.69;5043301;28;20699;-74
2021/12/16 05:55:56;;;;;;;18.75;12.85;;;;;;;9.52;100.00;103517.19;5039949;28;20023;-74
2021/12/16 05:58:22;;;;;;;23.75;15.13;;;;;;;9.43;100.00;103512.09;5039613;28;20029;-74
2021/12/16 06:00:52;;;;;;;22.60;14.57;;;;;;;9.33;100.00;103512.50;5044139;28;20048;-73
2021/12/16 06:03:17;;;;;;;21.58;13.60;;;;;;;9.31;100.00;103515.50;5041013;28;20035;-73
2021/12/16 06:05:43;;;;;;;25.92;13.75;;;;;;;9.22;100.00;103513.16;5036477;28;20025;-74
2021/12/16 06:08:10;;;;;;;26.35;14.27;;;;;;;9.23;100.00;103514.81;5024373;28;20029;-72
2021/12/16 06:13:24;;;;;;;31.27;14.88;;;;;;;9.23;100.00;103518.44;5039399;28;20085;-73
2021/12/16 06:29:04;;;;;;;28.85;15.10;;;;;;;9.27;100.00;103541.59;5042340;28;20059;-73
2021/12/16 06:31:30;;;;;;;30.65;15.35;;;;;;;9.18;100.00;103542.81;5040958;28;20029;-73
2021/12/16 06:33:56;;;;;;;24.55;14.18;;;;;;;9.13;100.00;103551.66;5038599;28;20371;-73
2021/12/16 06:36:22;;;;;;;21.35;12.95;;;;;;;8.99;100.00;103549.94;5037870;28;20036;-73
2021/12/16 06:38:48;;;;;;;20.35;13.00;;;;;;;8.94;100.00;103558.75;5042246;28;20485;-73
2021/12/16 06:41:14;;;;;;;21.65;13.50;;;;;;;8.79;100.00;103550.69;5041144;28;20039;-74
2021/12/16 06:43:41;;;;;;;21.70;13.52;;;;;;;8.63;100.00;103553.78;5036728;28;20351;-72
2021/12/16 06:46:11;;;;;;;21.55;13.27;;;;;;;8.73;100.00;103562.44;5042493;28;20037;-73
2021/12/16 06:48:43;;;;;;;20.00;13.63;;;;;;;8.80;100.00;103565.19;5050532;28;20427;-74
2021/12/16 06:51:16;;;;;;;25.65;15.43;;;;;;;8.68;100.00;103558.63;5058671;28;20127;-73
2021/12/16 06:53:52;;;;;;;23.90;14.18;;;;;;;8.60;100.00;103562.38;5043445;28;20029;-75
2021/12/16 06:56:27;;;;;;;21.63;13.63;;;;;;;8.62;100.00;103563.88;5060860;28;20411;-72
2021/12/16 07:02:02;;;;;;;23.45;14.30;;;;;;;8.63;100.00;103570.19;5060500;28;20420;-74
2021/12/16 07:04:28;;;;;;;23.92;13.73;;;;;;;8.59;100.00;103569.75;5058409;28;20124;-72
2021/12/16 07:06:54;;;;;;;25.35;15.57;;;;;;;8.56;100.00;103572.00;5062059;28;20377;-75
2021/12/16 07:09:19;;;;;;;16.77;13.02;;;;;;;8.55;100.00;103571.19;5063252;28;20040;-73
2021/12/16 07:11:51;;;;;;;20.83;13.80;;;;;;;8.49;100.00;103580.19;5058134;28;20039;-74
2021/12/16 07:14:19;;;;;;;23.40;13.85;;;;;;;8.34;100.00;103580.25;5061709;28;20036;-74
2021/12/16 07:16:48;;;;;;;18.88;14.43;;;;;;;8.38;100.00;103584.31;5058795;28;20079;-74
2021/12/16 07:19:14;;;;;;;23.50;14.35;;;;;;;8.44;100.00;103585.41;5056996;28;20048;-73
2021/12/16 07:21:42;;;;;;;26.05;15.02;;;;;;;8.48;100.00;103603.13;5060056;28;20557;-72
2021/12/16 07:24:10;;;;;;;22.13;14.40;;;;;;;8.59;100.00;103601.69;5044370;28;20032;-74
2021/12/16 07:26:38;;;;;;;23.42;15.00;;;;;;;8.51;100.00;103599.13;5060974;28;20493;-76
2021/12/16 07:29:05;;;;;;;27.30;15.52;;;;;;;8.46;100.00;103599.72;5039135;28;20123;-71
2021/12/16 07:31:32;;;;;;;25.50;15.27;;;;;;;8.48;100.00;103607.72;5042875;28;20135;-73
2021/12/16 07:33:59;;;;;;;27.52;16.10;;;;;;;8.42;100.00;103612.91;5040013;28;20427;-72
2021/12/16 07:36:24;;;;;;;21.70;13.98;;;;;;;8.33;100.00;103619.59;5043959;28;20025;-72
2021/12/16 07:38:51;;;;;;;22.60;15.02;;;;;;;8.29;100.00;103621.88;5046421;28;20025;-74
2021/12/16 07:41:20;;;;;;;19.75;13.18;;;;;;;8.31;100.00;103627.13;5028928;28;20029;-73
2021/12/16 07:43:58;;;;;;;21.98;14.70;;;;;;;8.31;100.00;103634.50;5025588;28;20032;-72
2021/12/16 07:46:24;;;;;;;25.90;15.50;;;;;;;8.29;100.00;103643.72;5043936;28;20036;-72
2021/12/16 07:48:49;;;;;;;29.35;15.30;;;;;;;8.26;100.00;103644.16;5040266;28;20160;-74
2021/12/16 07:51:15;;;;;;;25.88;15.80;;;;;;;8.24;100.00;103650.84;5058698;28;20036;-73
2021/12/16 07:53:42;;;;;;;23.73;15.77;;;;;;;8.26;100.00;103660.56;5045103;28;20151;-73
2021/12/16 07:56:09;;;;;;;20.60;16.25;;;;;;;8.28;100.00;103663.09;5044662;28;20479;-73
2021/12/16 07:58:35;;;;;;;24.73;16.08;;;;;;;8.18;100.00;103657.09;5042796;28;20048;-72
2021/12/16 08:01:01;;;;;;;20.90;15.32;;;;;;;8.18;100.00;103654.34;5043704;28;20095;-73
2021/12/16 08:03:33;;;;;;;19.67;13.20;;;;;;;8.13;100.00;103649.47;5044166;28;20029;-73
2021/12/16 08:06:05;;;;;;;24.13;15.75;;;;;;;8.03;100.00;103654.44;5042100;28;20409;-74
2021/12/16 08:08:31;;;;;;;22.65;16.30;;;;;;;8.06;100.00;103648.59;5044966;28;20460;-73
2021/12/16 08:10:56;;;;;;;25.95;16.30;;;;;;;8.13;100.00;103665.03;5041825;28;20037;-73
2021/12/16 08:13:22;;;;;;;22.88;16.05;;;;;;;8.17;100.00;103664.47;5042616;28;20115;-73
2021/12/16 08:15:48;;;;;;;23.58;15.82;;;;;;;8.10;100.00;103653.47;5043452;28;20071;-73
2021/12/16 08:18:15;;;;;;;22.75;15.65;;;;;;;8.21;100.00;103651.22;5024607;28;20053;-73
2021/12/16 08:20:44;;;;;;;26.20;15.77;;;;;;;8.30;100.00;103677.41;5040521;28;20522;-73
2021/12/16 08:23:11;;;;;;;23.15;15.00;;;;;;;8.43;100.00;103674.81;5042267;28;20147;-72
2021/12/16 08:25:37;;;;;;;22.40;16.25;;;;;;;8.50;100.00;103676.75;5043913;28;20034;-74
2021/12/16 08:28:05;;;;;;;22.50;15.43;;;;;;;8.51;100.00;103668.34;5059660;28;20343;-73
2021/12/16 08:30:35;;;;;;;22.33;14.10;;;;;;;8.56;100.00;103670.47;5062998;28;20043;-74
2021/12/16 08:33:05;;;;;;;22.15;14.65;;;;;;;8.59;100.00;103675.53;5063393;28;20048;-73
2021/12/16 08:35:32;;;;;;;29.75;16.30;;;;;;;8.58;100.00;103669.22;5066906;28;20028;-74
2021/12/16 08:37:57;;;;;;;26.35;15.35;;;;;;;8.70;100.00;103676.88;5029146;28;20112;-74
2021/12/16 08:40:25;;;;;;;26.40;16.20;;;;;;;8.46;100.00;103692.69;5065414;28;20446;-73
2021/12/16 08:42:51;;;;;;;23.45;14.48;;;;;;;8.82;100.00;103687.06;5062848;28;20020;-73
2021/12/16 08:45:21;;;;;;;22.05;14.68;;;;;;;8.90;100.00;103698.88;5065076;28;20028;-74
2021/12/16 08:47:47;;;;;;;20.90;14.23;;;;;;;8.96;100.00;103704.41;5063484;28;20020;-72
2021/12/16 08:50:17;;;;;;;22.15;14.85;;;;;;;9.06;100.00;103708.69;5026136;28;20024;-73
2021/12/16 08:52:42;;;;;;;26.90;17.00;;;;;;;8.91;100.00;103711.53;5063444;28;20086;-72
2021/12/16 08:55:09;;;;;;;23.48;15.07;;;;;;;8.99;100.00;103714.13;5065695;28;20467;-73
2021/12/16 08:57:35;;;;;;;28.90;17.70;;;;;;;9.11;100.00;103717.97;5061649;28;20514;-74
2021/12/16 09:00:02;;;;;;;26.65;16.20;;;;;;;9.25;100.00;103718.91;5064089;28;20036;-73
2021/12/16 09:02:27;;;;;;;30.30;17.13;;;;;;;9.30;100.00;103716.38;5065956;28;20028;-73
2021/12/16 09:04:53;;;;;;;25.30;15.80;;;;;;;9.40;100.00;103716.00;5042460;28;20029;-72
2021/12/16 09:07:18;;;;;;;23.70;15.35;;;;;;;9.49;100.00;103713.94;5064739;28;20032;-73
2021/12/16 09:09:46;;;;;;;24.52;16.17;;;;;;;9.58;100.00;103723.66;5064089;28;20364;-73
2021/12/16 09:14:57;;;;;;;26.70;17.25;;;;;;;9.77;100.00;103721.19;5063022;28;20335;-73
2021/12/16 09:17:22;;;;;;;23.17;15.40;;;;;;;9.84;100.00;103717.44;5064331;28;20039;-74
2021/12/16 09:19:52;;;;;;;27.17;17.30;;;;;;;9.84;100.00;103716.56;5058119;28;20024;-73
2021/12/16 09:22:20;;;;;;;25.88;16.95;;;;;;;9.99;100.00;103725.47;5063325;28;20058;-74
2021/12/16 09:24:48;;;;;;;25.27;17.90;;;;;;;10.10;100.00;103713.03;5062804;28;20507;-73
2021/12/16 09:27:16;;;;;;;26.90;15.82;;;;;;;10.15;100.00;103717.91;5043909;28;20131;-73
2021/12/16 09:29:42;;;;;;;30.10;16.55;;;;;;;10.15;100.00;103724.25;5052907;28;20033;-73
2021/12/16 09:32:07;;;;;;;30.67;17.55;;;;;;;10.26;100.00;103720.88;5040948;28;20488;-74
2021/12/16 09:34:35;;;;;;;26.80;17.48;;;;;;;10.40;100.00;103721.75;5021143;28;20039;-72
2021/12/16 09:37:00;;;;;;;32.30;15.55;;;;;;;10.49;100.00;103725.13;5037674;28;20096;-74
2021/12/16 09:39:27;;;;;;;23.00;14.95;;;;;;;10.63;100.00;103725.97;5024919;28;20108;-74
2021/12/16 09:41:57;;;;;;;29.20;14.73;;;;;;;10.47;100.00;103740.97;5026010;28;20138;-71
2021/12/16 09:44:23;;;;;;;26.70;15.57;;;;;;;10.47;100.00;103724.50;5052587;28;20065;-73
2021/12/16 09:46:53;;;;;;;26.33;15.35;;;;;;;10.78;100.00;103737.56;5049622;28;20471;-73
2021/12/16 09:49:19;;;;;;;33.80;16.48;;;;;;;10.97;100.00;103743.22;5048974;28;20024;-73
2021/12/16 09:51:47;;;;;;;25.77;15.50;;;;;;;11.14;100.00;103749.13;5057423;28;20498;-74
2021/12/16 09:54:16;;;;;;;23.10;14.57;;;;;;;10.99;100.00;103755.69;5060177;28;20043;-74
2021/12/16 09:56:44;;;;;;;25.20;14.93;;;;;;;11.11;100.00;103757.78;5060311;28;20020;-74
2021/12/16 09:59:13;;;;;;;27.10;15.15;;;;;;;10.95;100.00;103764.56;5043265;28;20258;-74
2021/12/16 10:01:41;;;;;;;26.40;14.45;;;;;;;11.22;100.00;103763.47;5042197;28;20506;-74
2021/12/16 10:04:13;;;;;;;20.00;14.18;;;;;;;10.93;100.00;103763.94;5037333;28;20804;-72
2021/12/16 10:06:39;;;;;;;31.23;14.80;;;;;;;10.87;100.00;103762.03;5046413;28;20029;-74
2021/12/16 10:09:07;;;;;;;24.00;13.13;;;;;;;11.25;100.00;103759.47;5040084;28;20041;-72
2021/12/16 10:11:35;;;;;;;24.55;14.05;;;;;;;11.23;100.00;103772.53;5040835;28;20024;-73
2021/12/16 10:14:16;;;;;;;25.40;12.90;;;;;;;11.16;100.00;103775.31;5041104;28;20021;-74
2021/12/16 10:19:31;;;;;;;20.45;12.30;;;;;;;11.10;100.00;103784.41;5036180;28;20406;-74
2021/12/16 10:22:23;;;;;;;24.33;12.75;;;;;;;11.15;100.00;103778.25;5038891;28;20456;-73
2021/12/16 10:24:53;;;;;;;20.33;12.38;;;;;;;11.01;100.00;103772.78;5042365;28;20021;-73
2021/12/16 10:27:22;;;;;;;22.40;12.13;;;;;;;11.07;100.00;103782.09;5023149;28;20112;-74
2021/12/16 10:29:59;;;;;;;21.33;11.63;;;;;;;11.21;100.00;103788.41;5039557;28;20024;-73
2021/12/16 10:32:35;;;;;;;24.00;12.57;;;;;;;11.22;100.00;103792.84;5042795;28;20033;-73
2021/12/16 10:35:24;;;;;;;20.98;11.65;;;;;;;11.03;100.00;103787.19;5036235;28;20186;-72
2021/12/16 10:37:56;;;;;;;18.42;11.15;;;;;;;11.20;100.00;103786.72;5041819;28;20061;-74
2021/12/16 10:40:28;;;;;;;18.20;11.38;;;;;;;11.21;100.00;103791.13;5036609;28;20029;-74
2021/12/16 10:42:56;;;;;;;19.45;11.00;;;;;;;11.29;100.00;103788.16;5040962;28;20029;-73
2021/12/16 10:45:36;;;;;;;18.00;11.25;;;;;;;11.35;100.00;103784.56;5025922;28;20057;-74
2021/12/16 10:48:18;;;;;;;20.88;11.15;;;;;;;11.08;100.00;103786.50;5041409;28;20021;-73
2021/12/16 10:50:50;;;;;;;20.75;12.07;;;;;;;11.03;100.00;103784.44;5034803;28;20029;-73
2021/12/16 10:53:37;;;;;;;21.00;11.43;;;;;;;10.87;100.00;103792.25;5046568;28;20036;-74
2021/12/16 10:56:03;;;;;;;20.83;11.77;;;;;;;11.29;100.00;103782.66;5047400;28;20040;-73
2021/12/16 10:58:56;;;;;;;26.83;13.10;;;;;;;11.52;100.00;103782.19;5038403;28;20520;-73
2021/12/16 11:01:31;;;;;;;21.90;11.85;;;;;;;11.05;100.00;103789.69;5040049;28;20374;-73
2021/12/16 11:03:58;;;;;;;28.83;12.25;;;;;;;11.22;100.00;103790.94;5039730;28;20100;-72
2021/12/16 11:06:33;;;;;;;23.33;11.13;;;;;;;11.29;100.00;103790.06;5021568;28;20115;-72
2021/12/16 11:09:36;;;;;;;21.98;11.80;;;;;;;11.28;100.00;103792.00;5042829;28;20043;-73
2021/12/16 11:12:09;;;;;;;24.77;12.85;;;;;;;11.46;100.00;103790.44;5040933;28;20433;-74
2021/12/16 11:14:37;;;;;;;20.08;11.32;;;;;;;11.70;100.00;103786.13;5019613;28;20032;-73
2021/12/16 11:17:06;;;;;;;20.83;12.32;;;;;;;11.74;100.00;103780.00;5041103;28;20158;-73
2021/12/16 11:20:09;;;;;;;22.98;12.07;;;;;;;11.27;100.00;103771.06;5040084;28;20437;-73
2021/12/16 11:22:37;;;;;;;21.55;12.90;;;;;;;11.42;100.00;103775.47;5042696;28;20044;-73
2021/12/16 11:25:25;;;;;;;23.52;11.27;;;;;;;11.50;100.00;103778.81;5040879;28;20040;-73
2021/12/16 11:28:08;;;;;;;22.85;11.50;;;;;;;11.33;100.00;103775.72;5040788;28;20021;-74
2021/12/16 11:30:39;;;;;;;21.38;11.63;;;;;;;11.29;100.00;103770.84;5043494;28;20029;-74
2021/12/16 11:33:21;;;;;;;21.48;11.73;;;;;;;11.36;100.00;103771.66;5041608;28;20098;-72
2021/12/16 11:35:58;;;;;;;23.90;12.73;;;;;;;11.67;100.00;103767.34;5043255;28;20104;-75
2021/12/16 11:38:26;;;;;;;21.58;11.07;;;;;;;11.92;100.00;103761.94;5040868;28;20029;-74
2021/12/16 11:41:04;;;;;;;22.58;11.95;;;;;;;11.77;100.00;103765.81;5045350;28;20380;-74
2021/12/16 11:43:45;;;;;;;25.42;13.02;;;;;;;11.77;100.00;103763.06;5040735;28;20960;-73
2021/12/16 11:46:16;;;;;;;23.05;12.80;;;;;;;11.59;100.00;103776.66;5043326;28;20119;-73
2021/12/16 11:48:42;;;;;;;20.38;11.20;;;;;;;11.47;100.00;103765.50;5039544;28;20620;-72
2021/12/16 11:51:15;;;;;;;21.13;11.25;;;;;;;11.56;100.00;103757.88;5041103;28;20041;-72
2021/12/16 11:53:55;;;;;;;21.05;12.05;;;;;;;11.44;100.00;103759.59;5062546;28;20052;-72
2021/12/16 11:56:42;;;;;;;19.90;11.57;;;;;;;11.42;100.00;103764.47;5062036;28;20028;-71
2021/12/16 11:59:09;;;;;;;20.77;11.20;;;;;;;11.36;100.00;103764.28;5063284;28;20063;-72
2021/12/16 12:01:37;;;;;;;22.48;11.38;;;;;;;11.47;100.00;103761.91;5065360;28;20043;-72
2021/12/16 12:04:07;;;;;;;24.08;11.98;;;;;;;11.80;100.00;103752.69;5060497;28;20020;-72
2021/12/16 12:06:36;;;;;;;16.92;10.93;;;;;;;11.87;100.00;103764.47;5038452;28;20108;-72
2021/12/16 12:09:05;;;;;;;26.65;11.93;;;;;;;11.93;100.00;103764.47;5055345;28;20021;-72
2021/12/16 12:11:34;;;;;;;21.90;11.60;;;;;;;11.72;100.00;103760.13;5063479;28;20043;-72
2021/12/16 12:14:08;;;;;;;19.40;11.85;;;;;;;11.62;100.00;103761.66;5064732;28;20033;-72
2021/12/16 12:16:42;;;;;;;17.95;11.27;;;;;;;11.77;100.00;103764.94;5064799;28;20129;-72
2021/12/16 12:19:15;;;;;;;18.55;11.20;;;;;;;12.03;100.00;103758.50;5062028;28;20111;-73
2021/12/16 12:22:00;;;;;;;21.23;10.43;;;;;;;11.84;100.00;103763.03;5048340;28;20056;-73
2021/12/16 12:24:52;;;;;;;22.65;11.95;;;;;;;12.02;100.00;103759.59;5063793;28;20060;-73
2021/12/16 12:27:25;;;;;;;18.33;10.32;;;;;;;11.97;100.00;103751.16;5062107;28;20037;-72
2021/12/16 12:29:59;;;;;;;18.20;10.90;;;;;;;12.13;100.00;103756.13;5064504;28;20340;-74
2021/12/16 12:32:32;;;;;;;18.27;10.15;;;;;;;12.14;100.00;103752.31;5065310;28;20469;-72
2021/12/16 12:35:02;;;;;;;16.25;9.75;;;;;;;12.05;100.00;103750.91;5062156;28;20032;-74
2021/12/16 12:37:31;;;;;;;22.10;11.18;;;;;;;11.93;100.00;103755.41;5064259;28;20570;-73
2021/12/16 12:40:16;;;;;;;20.75;9.57;;;;;;;11.98;100.00;103763.00;5065994;28;20067;-73
2021/12/16 12:42:42;;;;;;;22.23;10.60;;;;;;;11.79;100.00;103762.84;5064771;28;20103;-73
2021/12/16 12:45:10;;;;;;;21.13;10.05;;;;;;;11.63;100.00;103764.19;5063791;28;20025;-72
2021/12/16 12:47:38;;;;;;;22.23;10.82;;;;;;;11.71;100.00;103754.84;5066294;28;20028;-74
2021/12/16 12:50:09;;;;;;;14.40;9.82;;;;;;;11.61;100.00;103757.22;5060315;28;20462;-72
2021/12/16 12:52:36;;;;;;;16.70;9.73;;;;;;;11.56;100.00;103763.38;5065651;28;20032;-72
2021/12/16 12:55:09;;;;;;;17.85;11.13;;;;;;;11.70;100.00;103764.16;5066298;28;20040;-74
2021/12/16 12:57:35;;;;;;;;;;;;;;;11.80;100.00;103763.69;5064760;28;20517;-73
2021/12/16 13:00:06;;;;;;;21.27;10.80;;;;;;;11.82;100.00;103764.31;5066408;28;19912;-71
2021/12/16 13:02:36;;;;;;;20.92;11.40;;;;;;;11.88;100.00;103771.69;5064604;28;20410;-71
2021/12/16 13:05:19;;;;;;;20.17;10.70;;;;;;;12.01;100.00;103760.63;5060287;28;20028;-71
2021/12/16 13:07:54;;;;;;;20.83;10.23;;;;;;;11.86;100.00;103763.66;5062224;28;20021;-72
2021/12/16 13:10:27;;;;;;;20.75;10.52;;;;;;;11.58;100.00;103762.09;5060935;28;20031;-73
2021/12/16 13:13:14;;;;;;;18.13;9.82;;;;;;;11.38;100.00;103766.81;5062702;28;20039;-72
2021/12/16 13:23:41;;;;;;;16.55;9.70;;;;;;;11.63;100.00;103763.34;5044819;28;20587;-72
2021/12/16 13:26:29;;;;;;;14.98;10.02;;;;;;;11.94;100.00;103755.19;5044572;28;20600;-71
2021/12/16 13:29:10;;;;;;;19.27;10.57;;;;;;;12.16;100.00;103763.06;5043417;28;20028;-72
2021/12/16 13:31:49;;;;;;;20.40;11.32;;;;;;;11.42;100.00;103761.72;5044126;28;20123;-73
2021/12/16 13:34:28;;;;;;;17.85;10.35;;;;;;;11.70;100.00;103759.50;5035549;28;20036;-73
2021/12/16 13:36:57;;;;;;;23.08;10.77;;;;;;;11.87;100.00;103753.50;5044697;28;20023;-71
2021/12/16 13:39:29;;;;;;;24.17;11.15;;;;;;;11.89;100.00;103752.22;5042195;28;20218;-72
2021/12/16 13:42:12;;;;;;;18.67;9.57;;;;;;;11.70;100.00;103754.00;5062410;28;20459;-73
2021/12/16 13:44:54;;;;;;;16.67;9.43;;;;;;;11.74;100.00;103760.75;5060917;28;20040;-72
2021/12/16 14:03:47;;;;;;;19.75;10.60;;;;;;;11.84;100.00;103765.78;5060112;28;20290;-71
2021/12/16 14:06:22;;;;;;;21.35;11.05;;;;;;;11.71;100.00;103772.19;5059922;28;20142;-72
2021/12/16 14:08:54;;;;;;;16.92;8.95;;;;;;;11.76;100.00;103780.63;5061649;28;20040;-72
2021/12/16 14:17:30;;;;;;;13.82;8.95;;;;;;;11.44;100.00;103767.84;5061743;28;20143;-73
2021/12/16 14:23:26;;;;;;;19.17;10.13;;;;;;;11.63;100.00;103786.16;5060906;28;20474;-72
2021/12/16 14:31:16;;;;;;;17.30;10.68;;;;;;;11.35;100.00;103781.81;5062942;28;20150;-73
2021/12/16 14:49:46;;;;;;;18.15;10.02;;;;;;;11.22;100.00;103798.34;5044693;28;20389;-73
2021/12/16 14:52:20;;;;;;;17.13;10.23;;;;;;;11.25;100.00;103795.16;5047033;28;20352;-73